Time;durP1;ratioP1;P1;durP2;ratioP2;P2;SDS_P1;SDS_P2;PMS_P1;PMS_P2;Temp;Humidity;BMP_temperature;BMP_pressure;BME280_temperature;BME280_humidity;BME280_pressure;Samples;Min_cycle;Max_cycle;Signal;HPM_P1;HPM_P2
2020/12/12 00:01:37;;;;;;;11.23;8.52;;;6.30;87.90;;;;;;5158252;27;20052;-77
2020/12/12 00:04:02;;;;;;;12.27;8.95;;;6.30;87.90;;;;;;5158336;27;20031;-77
2020/12/12 00:06:28;;;;;;;10.02;7.78;;;6.30;87.90;;;;;;5158287;27;20027;-77
2020/12/12 00:08:54;;;;;;;10.98;7.82;;;6.30;87.90;;;;;;5158669;27;20023;-77
2020/12/12 00:11:20;;;;;;;9.43;7.63;;;6.30;87.90;;;;;;5158058;27;20019;-77
2020/12/12 00:13:46;;;;;;;10.60;8.02;;;6.30;87.90;;;;;;5140258;27;20443;-77
2020/12/12 00:16:15;;;;;;;9.00;7.47;;;6.30;87.80;;;;;;5139541;27;20060;-76
2020/12/12 00:18:41;;;;;;;11.30;8.43;;;6.30;87.90;;;;;;5139600;27;20019;-76
2020/12/12 00:21:06;;;;;;;11.93;8.38;;;6.30;87.90;;;;;;5139256;27;20027;-77
2020/12/12 00:23:33;;;;;;;10.55;7.80;;;6.30;87.90;;;;;;5158029;27;20023;-77
2020/12/12 00:25:59;;;;;;;10.27;8.13;;;6.40;87.90;;;;;;5157899;27;20062;-77
2020/12/12 00:28:24;;;;;;;9.30;7.40;;;6.30;87.90;;;;;;5158081;27;20501;-78
2020/12/12 00:30:50;;;;;;;10.65;7.80;;;6.30;87.90;;;;;;5139177;27;20019;-77
2020/12/12 00:33:15;;;;;;;11.85;8.63;;;6.40;87.90;;;;;;5139078;27;20079;-76
2020/12/12 00:35:41;;;;;;;9.13;7.90;;;6.40;87.90;;;;;;5157713;27;20118;-77
2020/12/12 00:38:07;;;;;;;10.15;7.93;;;6.40;87.90;;;;;;5158001;27;20094;-77
2020/12/12 00:40:32;;;;;;;8.77;7.28;;;6.30;87.90;;;;;;5138889;27;20564;-77
2020/12/12 00:42:58;;;;;;;9.48;7.90;;;6.40;87.90;;;;;;5138985;27;20027;-77
2020/12/12 00:45:23;;;;;;;9.13;7.10;;;6.40;87.90;;;;;;5157636;27;20045;-77
2020/12/12 00:47:49;;;;;;;9.20;7.18;;;6.40;87.90;;;;;;5157454;27;20034;-77
2020/12/12 00:50:15;;;;;;;10.48;7.90;;;6.40;87.90;;;;;;5138755;27;20064;-77
2020/12/12 00:52:41;;;;;;;9.85;7.63;;;6.40;87.90;;;;;;5157397;27;20061;-75
2020/12/12 00:55:06;;;;;;;11.68;8.93;;;6.40;87.90;;;;;;5138129;27;20114;-75
2020/12/12 00:57:32;;;;;;;10.68;8.18;;;6.40;87.80;;;;;;5138683;27;20502;-75
2020/12/12 00:59:58;;;;;;;10.40;7.70;;;6.40;87.90;;;;;;5157240;27;20014;-74
2020/12/12 01:02:23;;;;;;;8.43;7.18;;;6.40;88.00;;;;;;5138668;27;20019;-75
2020/12/12 01:04:49;;;;;;;10.25;7.20;;;6.40;88.00;;;;;;5157215;27;20015;-75
2020/12/12 01:07:14;;;;;;;10.50;7.70;;;6.40;87.90;;;;;;5138719;27;20015;-75
2020/12/12 01:09:40;;;;;;;9.73;7.90;;;6.40;88.00;;;;;;5157343;27;20019;-75
2020/12/12 01:12:06;;;;;;;9.38;7.35;;;6.40;87.90;;;;;;5138630;27;20052;-75
2020/12/12 01:14:31;;;;;;;9.48;7.15;;;6.40;87.90;;;;;;5157480;27;20025;-74
2020/12/12 01:17:00;;;;;;;10.43;7.43;;;6.40;87.90;;;;;;5138879;27;20411;-75
2020/12/12 01:19:26;;;;;;;10.52;8.07;;;6.50;88.00;;;;;;5138400;27;20042;-75
2020/12/12 01:21:53;;;;;;;10.40;7.95;;;6.40;87.90;;;;;;5156928;27;20466;-74
2020/12/12 01:24:19;;;;;;;10.48;7.95;;;6.40;87.90;;;;;;5138270;27;20022;-74
2020/12/12 01:26:46;;;;;;;10.15;8.05;;;6.40;88.00;;;;;;5138370;27;20047;-74
2020/12/12 01:29:12;;;;;;;9.95;7.45;;;6.50;88.00;;;;;;5156726;27;20105;-75
2020/12/12 01:31:37;;;;;;;11.15;8.32;;;6.40;87.90;;;;;;5156927;27;20201;-75
2020/12/12 01:34:03;;;;;;;10.48;7.68;;;6.40;87.90;;;;;;5138389;27;20176;-75
2020/12/12 01:36:29;;;;;;;10.90;8.10;;;6.40;87.90;;;;;;5156576;27;20060;-74
2020/12/12 01:38:55;;;;;;;10.85;8.40;;;6.40;88.00;;;;;;5138828;27;20018;-74
2020/12/12 01:41:22;;;;;;;12.55;8.57;;;6.40;88.00;;;;;;5137584;27;20050;-75
2020/12/12 01:43:54;;;;;;;11.43;8.23;;;6.40;88.00;;;;;;5138039;27;20130;-75
2020/12/12 01:46:26;;;;;;;10.63;8.23;;;6.40;88.00;;;;;;5137543;27;20033;-75
2020/12/12 01:48:54;;;;;;;11.60;9.30;;;6.40;88.00;;;;;;5156235;27;20022;-75
2020/12/12 01:51:21;;;;;;;11.35;8.10;;;6.40;88.00;;;;;;5156004;27;20354;-74
2020/12/12 01:53:52;;;;;;;11.38;8.52;;;6.40;88.00;;;;;;5156174;27;20503;-74
2020/12/12 01:56:18;;;;;;;12.25;9.02;;;6.40;88.10;;;;;;5137642;27;20026;-75
2020/12/12 01:58:44;;;;;;;11.63;8.32;;;6.40;88.00;;;;;;5156080;27;20015;-75
2020/12/12 02:01:12;;;;;;;11.38;9.25;;;6.50;88.10;;;;;;5137388;27;20026;-75
2020/12/12 02:03:42;;;;;;;13.10;9.48;;;6.50;88.10;;;;;;5137376;27;20485;-75
2020/12/12 02:06:12;;;;;;;11.70;8.48;;;6.50;88.10;;;;;;5155822;27;20031;-75
2020/12/12 02:08:38;;;;;;;12.05;9.15;;;6.50;88.10;;;;;;5136155;27;20389;-74
2020/12/12 02:11:07;;;;;;;11.20;8.73;;;6.50;88.10;;;;;;5137210;27;20083;-75
2020/12/12 02:13:33;;;;;;;11.85;8.82;;;6.50;88.20;;;;;;5137080;27;20477;-75
2020/12/12 02:15:59;;;;;;;10.57;8.45;;;6.50;88.20;;;;;;5155711;27;20011;-75
2020/12/12 02:18:24;;;;;;;12.20;9.02;;;6.50;88.20;;;;;;5155540;27;20114;-74
2020/12/12 02:20:55;;;;;;;12.32;8.98;;;6.50;88.20;;;;;;5155374;27;20022;-75
2020/12/12 02:23:21;;;;;;;12.38;9.02;;;6.50;88.10;;;;;;5155347;27;20018;-75
2020/12/12 02:25:47;;;;;;;12.35;9.07;;;6.50;88.10;;;;;;5136782;27;20050;-75
2020/12/12 02:28:16;;;;;;;12.70;9.70;;;6.50;88.00;;;;;;5155294;27;20386;-74
2020/12/12 02:30:42;;;;;;;11.23;9.00;;;6.50;88.10;;;;;;5136579;27;20099;-74
2020/12/12 02:33:08;;;;;;;11.45;8.77;;;6.50;88.10;;;;;;5136560;27;20063;-75
2020/12/12 02:35:33;;;;;;;12.95;9.27;;;6.60;88.20;;;;;;5155213;27;20525;-75
2020/12/12 02:37:59;;;;;;;10.20;8.15;;;6.60;88.20;;;;;;5155277;27;20029;-75
2020/12/12 02:40:25;;;;;;;11.07;8.45;;;6.60;88.20;;;;;;5136379;27;20042;-75
2020/12/12 02:42:50;;;;;;;12.82;8.23;;;6.60;88.10;;;;;;5155197;27;20023;-74
2020/12/12 02:45:17;;;;;;;13.35;9.50;;;6.60;88.20;;;;;;5155302;27;20025;-75
2020/12/12 02:47:45;;;;;;;12.40;8.70;;;6.60;88.10;;;;;;5136502;27;20384;-75
2020/12/12 02:50:12;;;;;;;11.70;8.75;;;6.50;88.10;;;;;;5136293;27;20355;-75
2020/12/12 02:52:39;;;;;;;11.70;8.57;;;6.60;88.80;;;;;;5154919;27;20054;-75
2020/12/12 02:55:06;;;;;;;12.35;8.73;;;6.60;88.20;;;;;;5136642;27;20041;-75
2020/12/12 02:57:33;;;;;;;10.60;8.02;;;6.60;88.20;;;;;;5136207;27;20071;-75
2020/12/12 02:59:59;;;;;;;12.65;9.10;;;6.60;88.20;;;;;;5155125;27;20109;-75
2020/12/12 03:02:25;;;;;;;11.50;7.85;;;6.50;88.20;;;;;;5154683;27;20019;-75
2020/12/12 03:04:51;;;;;;;12.05;9.05;;;6.60;88.20;;;;;;5154798;27;20438;-75
2020/12/12 03:07:18;;;;;;;11.88;8.52;;;6.60;88.30;;;;;;5155361;27;20019;-75
2020/12/12 03:09:43;;;;;;;12.10;8.50;;;6.60;88.30;;;;;;5136331;27;20044;-74
2020/12/12 03:12:09;;;;;;;11.52;8.40;;;6.60;88.20;;;;;;5154904;27;20062;-75
2020/12/12 03:14:35;;;;;;;11.55;8.88;;;6.60;88.20;;;;;;5136344;27;20014;-75
2020/12/12 03:17:00;;;;;;;12.52;8.93;;;6.60;88.30;;;;;;5154732;27;20026;-75
2020/12/12 03:19:26;;;;;;;13.45;10.45;;;6.60;88.30;;;;;;5135683;27;20201;-75
2020/12/12 03:21:51;;;;;;;13.07;9.38;;;6.60;88.20;;;;;;5154564;27;20034;-75
2020/12/12 03:24:17;;;;;;;13.10;9.40;;;6.60;88.20;;;;;;5154402;27;20064;-75
2020/12/12 03:26:43;;;;;;;13.45;9.55;;;6.60;88.30;;;;;;5154373;27;20106;-75
2020/12/12 03:29:08;;;;;;;13.02;9.48;;;6.60;88.30;;;;;;5154441;27;20164;-75
2020/12/12 03:31:34;;;;;;;11.40;8.57;;;6.70;88.40;;;;;;5154447;27;20022;-75
2020/12/12 03:34:00;;;;;;;11.88;8.25;;;6.70;88.30;;;;;;5154550;27;20018;-75
2020/12/12 03:36:26;;;;;;;13.00;9.88;;;6.70;88.30;;;;;;5135926;27;20110;-75
2020/12/12 03:38:52;;;;;;;10.68;8.43;;;6.70;88.30;;;;;;5135883;27;20450;-75
2020/12/12 03:41:17;;;;;;;11.30;8.63;;;6.70;88.30;;;;;;5154288;27;20512;-75
2020/12/12 03:43:43;;;;;;;12.48;9.10;;;6.60;88.30;;;;;;5135745;27;20023;-75
2020/12/12 03:46:09;;;;;;;12.38;9.02;;;6.60;88.30;;;;;;5135752;27;20031;-75
2020/12/12 03:48:34;;;;;;;11.48;8.75;;;6.70;88.30;;;;;;5135717;27;20019;-75
2020/12/12 03:51:00;;;;;;;11.40;8.40;;;6.60;88.30;;;;;;5135679;27;20079;-75
2020/12/12 03:53:25;;;;;;;12.98;9.18;;;6.60;88.40;;;;;;5135558;27;20411;-75
2020/12/12 03:55:51;;;;;;;12.88;8.73;;;6.60;88.40;;;;;;5135757;27;20029;-75
2020/12/12 03:58:17;;;;;;;10.73;8.32;;;6.70;88.50;;;;;;5135608;27;20396;-74
2020/12/12 04:00:42;;;;;;;11.63;9.00;;;6.60;88.40;;;;;;5154100;27;20034;-75
2020/12/12 04:03:08;;;;;;;10.60;8.55;;;6.70;88.50;;;;;;5154160;27;20026;-75
2020/12/12 04:05:33;;;;;;;10.25;7.88;;;6.70;88.50;;;;;;5154150;27;20093;-75
2020/12/12 04:07:59;;;;;;;11.85;8.73;;;6.70;88.50;;;;;;5154289;27;20027;-74
2020/12/12 04:10:25;;;;;;;10.40;7.57;;;6.70;88.50;;;;;;5135449;27;20023;-75
2020/12/12 04:12:50;;;;;;;10.63;8.25;;;6.70;88.60;;;;;;5154355;27;20482;-75
2020/12/12 04:15:16;;;;;;;12.82;8.80;;;6.70;88.50;;;;;;5135392;27;20083;-76
2020/12/12 04:17:42;;;;;;;11.52;8.52;;;6.80;88.50;;;;;;5135453;27;20018;-75
2020/12/12 04:20:07;;;;;;;13.80;9.70;;;6.70;88.50;;;;;;5135463;27;20022;-76
2020/12/12 04:22:33;;;;;;;12.95;9.25;;;6.80;88.60;;;;;;5135400;27;20023;-75
2020/12/12 04:24:58;;;;;;;10.80;8.27;;;6.80;88.60;;;;;;5154073;27;20050;-75
2020/12/12 04:27:24;;;;;;;12.30;9.63;;;6.80;88.60;;;;;;5135329;27;20431;-75
2020/12/12 04:29:49;;;;;;;11.20;8.55;;;6.80;88.60;;;;;;5135420;27;20027;-75
2020/12/12 04:32:15;;;;;;;11.63;8.55;;;6.80;88.60;;;;;;5157032;27;20377;-75
2020/12/12 04:34:41;;;;;;;10.93;8.38;;;6.80;88.60;;;;;;5157864;27;20492;-75
2020/12/12 04:37:06;;;;;;;10.65;8.07;;;6.80;88.60;;;;;;5157747;27;20080;-75
2020/12/12 04:39:32;;;;;;;9.77;7.82;;;6.70;88.50;;;;;;5157408;27;20034;-75
2020/12/12 04:41:58;;;;;;;11.50;9.18;;;6.80;88.60;;;;;;5138896;27;20019;-75
2020/12/12 04:44:24;;;;;;;11.70;9.20;;;6.80;88.50;;;;;;5138706;27;20019;-75
2020/12/12 04:46:51;;;;;;;10.00;8.25;;;6.80;88.60;;;;;;5157372;27;20023;-75
2020/12/12 04:49:17;;;;;;;11.68;8.57;;;6.80;88.60;;;;;;5138892;27;20018;-75
2020/12/12 04:51:47;;;;;;;12.20;9.13;;;6.80;88.60;;;;;;5157290;27;20030;-75
2020/12/12 04:54:18;;;;;;;9.75;8.40;;;6.90;88.60;;;;;;5157294;27;20015;-75
2020/12/12 04:56:46;;;;;;;12.82;8.88;;;6.90;88.60;;;;;;5157180;27;20026;-75
2020/12/12 04:59:13;;;;;;;11.52;8.82;;;6.90;88.60;;;;;;5156991;27;20374;-75
2020/12/12 05:01:38;;;;;;;10.68;8.15;;;6.90;88.50;;;;;;5157517;27;20063;-75
2020/12/12 05:04:07;;;;;;;11.30;8.65;;;7.00;88.50;;;;;;5157029;27;20023;-75
2020/12/12 05:06:33;;;;;;;11.02;8.63;;;6.90;88.40;;;;;;5138407;27;20385;-75
2020/12/12 05:08:59;;;;;;;11.40;8.00;;;6.90;88.40;;;;;;5157191;27;20030;-75
2020/12/12 05:11:25;;;;;;;10.65;7.82;;;6.90;88.40;;;;;;5138411;27;20059;-75
2020/12/12 05:13:52;;;;;;;9.95;7.68;;;7.00;88.50;;;;;;5138453;27;20105;-75
2020/12/12 05:16:18;;;;;;;10.80;7.90;;;7.00;88.50;;;;;;5138348;27;20027;-75
2020/12/12 05:18:44;;;;;;;11.88;8.40;;;7.00;88.50;;;;;;5156920;27;20071;-75
2020/12/12 05:21:11;;;;;;;11.30;9.10;;;7.00;88.40;;;;;;5138194;27;20025;-76
2020/12/12 05:23:38;;;;;;;11.45;8.57;;;7.00;88.40;;;;;;5138060;27;20094;-75
2020/12/12 05:26:03;;;;;;;11.48;8.55;;;7.00;88.40;;;;;;5157058;27;20023;-75
2020/12/12 05:28:29;;;;;;;10.80;8.10;;;7.00;88.40;;;;;;5156531;27;20030;-75
2020/12/12 05:30:55;;;;;;;10.27;8.32;;;7.00;88.40;;;;;;5137857;27;20033;-76
2020/12/12 05:33:23;;;;;;;12.68;8.40;;;7.00;88.30;;;;;;5137933;27;20022;-75
2020/12/12 05:35:50;;;;;;;12.70;8.80;;;7.00;88.40;;;;;;5138136;27;20098;-76
2020/12/12 05:38:17;;;;;;;11.50;8.32;;;7.00;88.50;;;;;;5138172;27;20132;-75
2020/12/12 05:40:48;;;;;;;9.70;7.80;;;7.00;88.40;;;;;;5156451;27;20049;-76
2020/12/12 05:43:14;;;;;;;11.45;8.30;;;7.00;88.40;;;;;;5156031;27;20031;-76
2020/12/12 05:45:41;;;;;;;10.27;8.10;;;7.10;88.50;;;;;;5156372;27;20385;-75
2020/12/12 05:48:11;;;;;;;9.95;8.18;;;7.10;88.50;;;;;;5137559;27;20431;-74
2020/12/12 05:50:37;;;;;;;10.00;7.50;;;7.10;88.40;;;;;;5137652;27;20460;-75
2020/12/12 05:53:05;;;;;;;11.30;8.38;;;7.10;88.40;;;;;;5156575;27;20061;-75
2020/12/12 05:58:54;;;;;;;10.40;7.88;;;7.10;88.40;;;;;;5156200;27;20067;-76
2020/12/12 06:01:22;;;;;;;11.98;7.90;;;7.10;88.30;;;;;;5137546;27;20133;-76
2020/12/12 06:04:08;;;;;;;10.05;7.97;;;7.20;88.40;;;;;;5137670;27;20080;-76
2020/12/12 06:06:45;;;;;;;11.38;8.43;;;7.20;88.40;;;;;;5156049;27;20151;-75
2020/12/12 06:09:14;;;;;;;9.88;7.85;;;7.20;88.40;;;;;;5137513;27;20041;-75
2020/12/12 06:11:48;;;;;;;10.93;8.32;;;7.20;88.40;;;;;;5137234;27;20390;-76
2020/12/12 06:14:14;;;;;;;10.52;7.70;;;7.20;88.40;;;;;;5137131;27;20014;-75
2020/12/12 06:16:40;;;;;;;10.77;7.88;;;7.20;88.40;;;;;;5156183;27;20027;-75
2020/12/12 06:19:09;;;;;;;11.27;8.43;;;7.20;88.40;;;;;;5155649;27;20026;-75
2020/12/12 06:21:36;;;;;;;10.20;7.82;;;7.20;88.40;;;;;;5136956;27;20041;-75
2020/12/12 06:24:05;;;;;;;11.60;8.10;;;7.20;88.50;;;;;;5137125;27;20041;-75
2020/12/12 06:26:46;;;;;;;13.32;8.98;;;7.20;88.40;;;;;;5155877;27;20132;-75
2020/12/12 06:29:14;;;;;;;10.15;7.68;;;7.20;88.50;;;;;;5136827;27;20489;-75
2020/12/12 06:31:42;;;;;;;9.82;8.00;;;7.20;88.50;;;;;;5136654;27;20427;-75
2020/12/12 06:34:09;;;;;;;11.52;8.05;;;7.30;88.50;;;;;;5136631;27;20449;-75
2020/12/12 06:36:35;;;;;;;11.60;7.50;;;7.30;88.50;;;;;;5136718;27;20430;-75
2020/12/12 06:39:20;;;;;;;12.25;7.82;;;7.30;88.50;;;;;;5136542;27;20067;-75
2020/12/12 06:41:48;;;;;;;10.57;7.40;;;7.30;88.50;;;;;;5136546;27;20087;-75
2020/12/12 06:44:34;;;;;;;13.43;7.65;;;7.30;88.50;;;;;;5136619;27;20067;-75
2020/12/12 06:47:01;;;;;;;12.13;7.97;;;7.30;88.60;;;;;;5136494;27;20439;-75
2020/12/12 06:49:27;;;;;;;9.10;7.05;;;7.30;88.50;;;;;;5155012;27;20083;-75
2020/12/12 06:51:53;;;;;;;11.48;7.65;;;7.30;88.60;;;;;;5136185;27;20105;-75
2020/12/12 06:54:20;;;;;;;10.27;7.65;;;7.30;88.60;;;;;;5135832;27;20393;-75
2020/12/12 06:56:46;;;;;;;10.57;7.40;;;7.40;88.60;;;;;;5136175;27;20029;-75
2020/12/12 06:59:37;;;;;;;9.88;7.55;;;7.40;88.60;;;;;;5136224;27;20117;-75
2020/12/12 07:02:07;;;;;;;8.15;6.85;;;7.40;88.70;;;;;;5154801;27;20029;-75
2020/12/12 07:04:35;;;;;;;8.27;6.63;;;7.40;88.60;;;;;;5154995;27;20427;-75
2020/12/12 07:07:02;;;;;;;9.85;6.90;;;7.40;88.60;;;;;;5136252;27;20117;-75
2020/12/12 07:09:28;;;;;;;11.25;6.43;;;7.40;88.60;;;;;;5136353;27;20045;-75
2020/12/12 07:11:57;;;;;;;10.65;6.50;;;7.40;88.60;;;;;;5155077;27;20427;-75
2020/12/12 07:14:24;;;;;;;8.77;6.22;;;7.40;88.60;;;;;;5136439;27;20023;-75
2020/12/12 07:16:54;;;;;;;9.10;6.60;;;7.40;88.60;;;;;;5136322;27;20015;-76
2020/12/12 07:19:39;;;;;;;10.23;6.50;;;7.40;88.60;;;;;;5136311;27;20019;-77
2020/12/12 07:22:11;;;;;;;12.05;7.10;;;7.40;88.60;;;;;;5136054;27;20031;-76
2020/12/12 07:24:41;;;;;;;11.43;6.70;;;7.50;88.70;;;;;;5154918;27;20062;-76
2020/12/12 07:27:07;;;;;;;9.70;6.72;;;7.50;88.70;;;;;;5154610;27;20442;-76
2020/12/12 07:29:34;;;;;;;9.63;6.53;;;7.50;88.70;;;;;;5136062;27;20054;-76
2020/12/12 07:32:00;;;;;;;9.20;6.63;;;7.50;88.70;;;;;;5154406;27;20022;-76
2020/12/12 07:34:27;;;;;;;9.68;6.78;;;7.60;88.70;;;;;;5136093;27;20066;-76
2020/12/12 07:37:11;;;;;;;11.02;6.32;;;7.60;88.70;;;;;;5135881;27;20400;-76
2020/12/12 07:39:39;;;;;;;9.27;6.60;;;7.60;88.70;;;;;;5135808;27;20390;-76
2020/12/12 07:42:07;;;;;;;10.43;6.45;;;7.60;88.70;;;;;;5135904;27;20539;-76
2020/12/12 07:44:33;;;;;;;13.57;6.70;;;7.60;88.60;;;;;;5136020;27;20478;-76
2020/12/12 07:47:04;;;;;;;11.95;6.70;;;7.60;88.70;;;;;;5131298;27;20029;-76
2020/12/12 07:49:37;;;;;;;14.48;7.25;;;7.60;88.70;;;;;;5136542;27;20109;-76
2020/12/12 07:52:11;;;;;;;10.27;6.72;;;7.60;88.70;;;;;;5135743;27;20023;-76
2020/12/12 07:54:47;;;;;;;16.35;6.97;;;7.60;88.70;;;;;;5154334;27;20038;-76
2020/12/12 07:57:15;;;;;;;11.65;7.00;;;7.60;88.60;;;;;;5135709;27;20115;-76
2020/12/12 07:59:41;;;;;;;14.55;7.25;;;7.60;88.60;;;;;;5154404;27;20478;-76
2020/12/12 08:02:08;;;;;;;13.52;7.38;;;7.60;88.60;;;;;;5135739;27;20497;-76
2020/12/12 08:04:34;;;;;;;14.07;6.78;;;7.60;88.70;;;;;;5155000;27;20474;-75
2020/12/12 08:07:18;;;;;;;11.48;6.68;;;7.60;88.80;;;;;;5139791;27;20083;-76
2020/12/12 08:09:52;;;;;;;16.88;7.55;;;7.60;88.80;;;;;;5139570;27;20022;-75
2020/12/12 08:12:28;;;;;;;15.68;7.00;;;7.60;88.80;;;;;;5139473;27;20031;-75
2020/12/12 08:14:54;;;;;;;15.10;7.60;;;7.60;88.80;;;;;;5139393;27;20477;-75
2020/12/12 08:17:20;;;;;;;16.27;7.07;;;7.70;88.80;;;;;;5157909;27;20026;-75
2020/12/12 08:19:47;;;;;;;13.90;7.72;;;7.70;88.80;;;;;;5139239;27;20430;-75
2020/12/12 08:22:24;;;;;;;12.02;7.55;;;7.70;88.80;;;;;;5139486;27;20446;-75
2020/12/12 08:24:50;;;;;;;20.60;7.88;;;7.70;88.70;;;;;;5139423;27;20026;-75
2020/12/12 08:27:27;;;;;;;15.82;8.50;;;7.70;88.70;;;;;;5139313;27;20124;-75
2020/12/12 08:29:58;;;;;;;13.95;7.57;;;7.70;88.70;;;;;;5158024;27;20155;-75
2020/12/12 08:32:39;;;;;;;16.30;7.30;;;7.80;88.80;;;;;;5139108;27;20030;-75
2020/12/12 08:35:13;;;;;;;20.48;8.70;;;7.80;88.80;;;;;;5139123;27;20026;-76
2020/12/12 08:37:49;;;;;;;17.70;8.82;;;7.80;88.70;;;;;;5139182;27;20335;-76
2020/12/12 08:40:15;;;;;;;19.48;8.32;;;7.80;88.60;;;;;;5135460;27;20027;-75
2020/12/12 08:42:40;;;;;;;19.45;8.40;;;7.80;88.60;;;;;;5135389;27;20072;-76
2020/12/12 08:45:17;;;;;;;19.27;8.80;;;7.80;88.70;;;;;;5135615;27;20020;-76
2020/12/12 08:47:43;;;;;;;19.20;9.05;;;7.80;88.70;;;;;;5135674;27;20068;-76
2020/12/12 08:50:10;;;;;;;17.17;8.70;;;7.80;88.70;;;;;;5137029;27;20102;-76
2020/12/12 08:52:35;;;;;;;15.23;9.20;;;7.80;88.70;;;;;;5136569;27;20027;-76
2020/12/12 08:55:03;;;;;;;17.60;9.48;;;7.90;88.80;;;;;;5136980;27;20148;-76
2020/12/12 08:57:29;;;;;;;17.98;8.52;;;7.90;88.80;;;;;;5136566;27;20023;-76
2020/12/12 09:00:03;;;;;;;24.60;9.13;;;7.90;88.80;;;;;;5136396;27;20386;-76
2020/12/12 09:02:29;;;;;;;32.28;9.30;;;7.90;88.80;;;;;;5136403;27;20035;-76
2020/12/12 09:05:11;;;;;;;23.27;9.48;;;7.90;88.80;;;;;;5135148;27;20029;-76
2020/12/12 09:07:37;;;;;;;25.65;9.48;;;7.90;88.80;;;;;;5135036;27;20435;-75
2020/12/12 09:10:12;;;;;;;37.78;9.60;;;7.90;88.80;;;;;;5136193;27;20498;-75
2020/12/12 09:12:49;;;;;;;23.58;9.70;;;7.90;88.80;;;;;;5136265;27;20042;-76
2020/12/12 09:15:15;;;;;;;26.20;9.85;;;7.90;88.80;;;;;;5136131;27;20023;-76
2020/12/12 09:17:41;;;;;;;38.08;9.88;;;7.90;88.80;;;;;;5135526;27;20063;-75
2020/12/12 09:20:08;;;;;;;21.58;9.63;;;8.00;88.90;;;;;;5134717;27;20522;-75
2020/12/12 09:22:35;;;;;;;53.05;10.82;;;8.00;88.90;;;;;;5134994;27;20466;-76
2020/12/12 09:25:01;;;;;;;25.50;9.93;;;8.00;88.90;;;;;;5134931;27;20023;-76
2020/12/12 09:27:28;;;;;;;26.25;11.05;;;8.00;88.90;;;;;;5134574;27;20027;-76
2020/12/12 09:29:53;;;;;;;30.42;11.68;;;8.00;88.90;;;;;;5134419;27;20103;-76
2020/12/12 09:32:19;;;;;;;25.95;10.85;;;8.00;88.90;;;;;;5136100;27;20034;-76
2020/12/12 09:34:45;;;;;;;29.17;12.18;;;8.00;88.90;;;;;;5134461;27;20015;-76
2020/12/12 09:37:11;;;;;;;29.30;11.70;;;8.00;89.00;;;;;;5134237;27;20031;-76
2020/12/12 09:39:37;;;;;;;30.35;12.35;;;8.00;89.00;;;;;;5134421;27;20042;-76
2020/12/12 09:42:03;;;;;;;26.92;12.52;;;8.00;89.00;;;;;;5135548;27;20023;-77
2020/12/12 09:44:29;;;;;;;252.38;23.33;;;8.10;89.00;;;;;;5134249;27;20127;-76
2020/12/12 09:46:55;;;;;;;30.00;11.85;;;8.10;89.00;;;;;;5135397;27;20482;-76
2020/12/12 09:49:21;;;;;;;27.98;11.85;;;8.10;89.00;;;;;;5135437;27;20094;-76
2020/12/12 09:51:47;;;;;;;28.40;11.77;;;8.10;89.10;;;;;;5134509;27;20027;-76
2020/12/12 09:54:14;;;;;;;23.77;10.05;;;8.10;89.00;;;;;;5135438;27;20030;-77
2020/12/12 09:56:39;;;;;;;33.65;11.10;;;8.10;89.00;;;;;;5134022;27;20027;-76
2020/12/12 09:59:05;;;;;;;24.83;11.32;;;8.20;89.10;;;;;;5133863;27;20509;-76
2020/12/12 10:01:31;;;;;;;62.83;11.20;;;8.20;89.10;;;;;;5134073;27;20122;-76
2020/12/12 10:03:56;;;;;;;21.77;9.48;;;8.20;89.10;;;;;;5133991;27;20023;-76
2020/12/12 10:06:22;;;;;;;29.40;9.98;;;8.20;89.10;;;;;;5133779;27;20031;-76
2020/12/12 10:08:48;;;;;;;20.45;9.52;;;8.20;89.10;;;;;;5135276;27;20034;-76
2020/12/12 10:11:14;;;;;;;25.10;9.85;;;8.20;89.00;;;;;;5135068;27;20030;-76
2020/12/12 10:13:40;;;;;;;36.40;10.63;;;8.30;89.10;;;;;;5133577;27;20019;-77
2020/12/12 10:16:05;;;;;;;23.42;10.38;;;8.20;89.00;;;;;;5133670;27;20026;-77
2020/12/12 10:18:31;;;;;;;31.05;11.20;;;8.30;89.10;;;;;;5133743;27;20104;-77
2020/12/12 10:20:57;;;;;;;25.23;9.95;;;8.30;89.10;;;;;;5133793;27;20037;-77
2020/12/12 10:23:23;;;;;;;23.88;10.30;;;8.30;89.10;;;;;;5133365;27;20027;-77
2020/12/12 10:25:50;;;;;;;20.75;10.25;;;8.30;89.00;;;;;;5134679;27;20031;-76
2020/12/12 10:28:17;;;;;;;27.95;10.90;;;8.30;89.00;;;;;;5133980;27;20038;-76
2020/12/12 10:30:42;;;;;;;19.92;10.82;;;8.40;89.10;;;;;;5133257;27;20023;-75
2020/12/12 10:33:08;;;;;;;25.25;10.63;;;8.40;89.00;;;;;;5134984;27;20072;-75
2020/12/12 10:35:34;;;;;;;20.45;10.60;;;8.40;89.10;;;;;;5135044;27;20091;-75
2020/12/12 10:38:00;;;;;;;33.03;11.95;;;8.50;89.10;;;;;;5133162;27;20027;-75
2020/12/12 10:42:52;;;;;;;26.60;11.20;;;8.50;88.90;;;;;;5134244;27;20034;-74
2020/12/12 10:45:18;;;;;;;29.88;10.95;;;8.50;88.90;;;;;;5134429;27;20428;-73
2020/12/12 10:47:46;;;;;;;31.63;12.10;;;8.50;89.00;;;;;;5134645;27;20055;-79
2020/12/12 10:50:12;;;;;;;20.08;11.13;;;8.50;88.90;;;;;;5134510;27;20118;-73
2020/12/12 10:52:38;;;;;;;26.42;11.07;;;8.50;89.60;;;;;;5134349;27;20107;-74
2020/12/12 10:55:05;;;;;;;23.27;11.60;;;8.60;89.10;;;;;;5133291;27;20470;-74
2020/12/12 10:57:32;;;;;;;24.42;10.63;;;8.60;89.10;;;;;;5134223;27;20015;-74
2020/12/12 10:59:59;;;;;;;24.48;10.77;;;8.60;89.10;;;;;;5132877;27;20027;-74
2020/12/12 11:02:28;;;;;;;23.20;11.30;;;8.60;89.10;;;;;;5132853;27;20027;-74
2020/12/12 11:04:54;;;;;;;20.55;10.25;;;8.60;89.00;;;;;;5134193;27;20479;-75
2020/12/12 11:07:19;;;;;;;26.23;11.30;;;8.70;89.00;;;;;;5132835;27;20118;-74
2020/12/12 11:09:46;;;;;;;25.70;11.45;;;8.70;89.00;;;;;;5132887;27;20031;-74
2020/12/12 11:12:13;;;;;;;23.75;11.80;;;8.70;89.00;;;;;;5133874;27;20073;-74
2020/12/12 11:14:40;;;;;;;23.83;11.88;;;8.70;89.00;;;;;;5134146;27;20015;-74
2020/12/12 11:17:05;;;;;;;25.25;11.57;;;8.80;89.00;;;;;;5132819;27;20023;-74
2020/12/12 11:19:31;;;;;;;26.55;11.32;;;8.80;89.00;;;;;;5132680;27;20023;-73
2020/12/12 11:21:57;;;;;;;27.08;11.68;;;8.80;88.90;;;;;;5134049;27;20031;-74
2020/12/12 11:24:23;;;;;;;20.92;11.32;;;8.80;88.90;;;;;;5134474;27;20031;-74
2020/12/12 11:26:49;;;;;;;27.20;11.45;;;8.80;89.00;;;;;;5132702;27;20037;-75
2020/12/12 11:29:15;;;;;;;27.58;11.38;;;8.80;88.90;;;;;;5133927;27;20023;-73
2020/12/12 11:31:45;;;;;;;23.52;10.90;;;8.80;88.90;;;;;;5132463;28;20026;-74
2020/12/12 11:39:31;;;;;;;31.52;12.48;;;8.90;88.80;;;;;;5136088;27;20114;-75
2020/12/12 11:45:39;;;;;;;25.15;10.73;;;9.00;88.90;;;;;;5074778;28;19912;-74
2020/12/12 11:47:59;;;;;;;22.23;10.70;;;9.00;88.90;;;;;;5074345;28;20033;-74
2020/12/12 11:50:29;;;;;;;21.67;11.35;;;9.00;88.80;;;;;;5057704;28;20039;-75
2020/12/12 11:52:56;;;;;;;26.90;10.25;;;9.10;88.80;;;;;;5057709;28;20032;-76
2020/12/12 11:55:23;;;;;;;23.70;11.90;;;9.10;88.80;;;;;;5057615;28;20039;-73
2020/12/12 11:57:49;;;;;;;22.98;11.02;;;9.10;88.70;;;;;;5057747;28;20098;-73
2020/12/12 12:00:15;;;;;;;21.73;11.25;;;9.10;88.70;;;;;;5057461;28;20136;-73
2020/12/12 12:02:41;;;;;;;20.95;11.48;;;9.10;88.80;;;;;;5074296;28;20119;-74
2020/12/12 12:05:07;;;;;;;20.52;10.73;;;9.20;88.80;;;;;;5057395;28;20108;-73
2020/12/12 12:07:40;;;;;;;18.25;10.80;;;9.20;88.80;;;;;;5074149;28;20531;-74
2020/12/12 12:10:12;;;;;;;21.33;10.97;;;9.20;88.90;;;;;;5074090;28;20040;-73
2020/12/12 12:12:38;;;;;;;20.80;10.90;;;9.30;88.90;;;;;;5074452;28;20482;-74
2020/12/12 12:15:04;;;;;;;19.92;10.98;;;9.30;88.80;;;;;;5057065;28;20021;-73
2020/12/12 12:17:29;;;;;;;23.85;10.90;;;9.30;88.70;;;;;;5057880;28;20058;-74
2020/12/12 12:19:55;;;;;;;24.52;11.82;;;9.30;88.70;;;;;;5132243;27;20031;-73
2020/12/12 12:22:21;;;;;;;20.83;10.45;;;9.30;88.70;;;;;;5139293;27;20026;-73
2020/12/12 12:24:46;;;;;;;21.48;11.10;;;9.40;89.40;;;;;;5157977;27;20035;-72
2020/12/12 12:27:12;;;;;;;23.35;10.63;;;9.40;88.70;;;;;;5157600;27;20033;-73
2020/12/12 12:29:37;;;;;;;21.55;11.07;;;9.40;88.70;;;;;;5139045;27;20022;-72
2020/12/12 12:32:03;;;;;;;18.75;10.85;;;9.40;88.70;;;;;;5138833;27;20034;-72
2020/12/12 12:34:29;;;;;;;19.85;10.77;;;9.40;88.70;;;;;;5157891;27;20042;-72
2020/12/12 12:36:58;;;;;;;23.67;11.57;;;9.40;88.70;;;;;;5138817;27;20507;-73
2020/12/12 12:39:24;;;;;;;17.35;11.10;;;9.50;88.70;;;;;;5157578;27;20030;-73
2020/12/12 12:41:50;;;;;;;21.80;11.20;;;9.50;88.70;;;;;;5138534;27;20034;-72
2020/12/12 12:44:17;;;;;;;20.95;10.65;;;9.50;88.80;;;;;;5157355;27;20026;-73
2020/12/12 12:46:44;;;;;;;21.38;10.93;;;9.50;88.80;;;;;;5138578;27;20386;-72
2020/12/12 12:49:10;;;;;;;22.13;11.32;;;9.50;88.80;;;;;;5157120;27;20061;-73
2020/12/12 12:51:36;;;;;;;22.55;11.40;;;9.60;88.90;;;;;;5156089;27;20070;-72
2020/12/12 12:54:01;;;;;;;20.30;10.55;;;9.60;88.80;;;;;;5138541;27;20390;-73
2020/12/12 12:56:27;;;;;;;24.35;11.23;;;9.60;88.80;;;;;;5157364;27;20026;-72
2020/12/12 12:58:54;;;;;;;22.33;11.23;;;9.60;88.80;;;;;;5138991;27;20080;-73
2020/12/12 13:01:21;;;;;;;19.88;10.43;;;9.60;88.80;;;;;;5138532;27;20083;-73